sensor_id;sensor_type;location;lat;lon;timestamp;pressure;altitude;pressure_sealevel;temperature;humidity
47522;BME280;32291;52.010;4.446;2023-05-21T00:00:20;78724.31;;;-144.67;100.00
47522;BME280;32291;52.010;4.446;2023-05-21T00:01:22;78726.47;;;-144.67;100.00
47522;BME280;32291;52.010;4.446;2023-05-21T00:02:26;78732.88;;;-144.67;100.00
47522;BME280;32291;52.010;4.446;2023-05-21T00:03:30;78737.16;;;-144.67;100.00
47522;BME280;32291;52.010;4.446;2023-05-21T00:04:32;78735.03;;;-144.67;100.00
47522;BME280;32291;52.010;4.446;2023-05-21T00:05:34;78737.16;;;-144.67;100.00
47522;BME280;32291;52.010;4.446;2023-05-21T00:06:37;78730.75;;;-144.67;100.00
47522;BME280;32291;52.010;4.446;2023-05-21T00:07:39;78726.47;;;-144.67;100.00
47522;BME280;32291;52.010;4.446;2023-05-21T00:08:41;78732.88;;;-144.67;100.00
47522;BME280;32291;52.010;4.446;2023-05-21T00:09:44;78730.75;;;-144.67;100.00
47522;BME280;32291;52.010;4.446;2023-05-21T00:10:46;78739.31;;;-144.67;100.00
47522;BME280;32291;52.010;4.446;2023-05-21T00:11:47;78726.47;;;-144.67;100.00
47522;BME280;32291;52.010;4.446;2023-05-21T00:12:49;78732.88;;;-144.67;100.00
47522;BME280;32291;52.010;4.446;2023-05-21T00:13:51;78732.88;;;-144.67;100.00
47522;BME280;32291;52.010;4.446;2023-05-21T00:14:53;78735.03;;;-144.67;100.00
47522;BME280;32291;52.010;4.446;2023-05-21T00:15:54;78737.16;;;-144.67;100.00
47522;BME280;32291;52.010;4.446;2023-05-21T00:16:56;78741.44;;;-144.67;100.00
47522;BME280;32291;52.010;4.446;2023-05-21T00:17:58;78741.44;;;-144.67;100.00
47522;BME280;32291;52.010;4.446;2023-05-21T00:18:59;78743.59;;;-144.67;100.00
47522;BME280;32291;52.010;4.446;2023-05-21T00:20:04;78743.59;;;-144.67;100.00
47522;BME280;32291;52.010;4.446;2023-05-21T00:21:11;78741.44;;;-144.67;100.00
47522;BME280;32291;52.010;4.446;2023-05-21T00:22:13;78741.44;;;-144.67;100.00
47522;BME280;32291;52.010;4.446;2023-05-21T00:23:15;78745.72;;;-144.67;100.00
47522;BME280;32291;52.010;4.446;2023-05-21T00:24:19;78743.59;;;-144.67;100.00
47522;BME280;32291;52.010;4.446;2023-05-21T00:25:21;78747.88;;;-144.67;100.00
47522;BME280;32291;52.010;4.446;2023-05-21T00:26:23;78745.72;;;-144.67;100.00
47522;BME280;32291;52.010;4.446;2023-05-21T00:27:24;78750.00;;;-144.67;100.00
47522;BME280;32291;52.010;4.446;2023-05-21T00:28:26;78754.28;;;-144.67;100.00
47522;BME280;32291;52.010;4.446;2023-05-21T00:29:28;78754.28;;;-144.67;100.00
47522;BME280;32291;52.010;4.446;2023-05-21T00:30:30;78758.56;;;-144.67;100.00
47522;BME280;32291;52.010;4.446;2023-05-21T00:31:32;78747.88;;;-144.67;100.00
47522;BME280;32291;52.010;4.446;2023-05-21T00:32:40;78745.72;;;-144.67;100.00
47522;BME280;32291;52.010;4.446;2023-05-21T00:33:42;78752.16;;;-144.67;100.00
47522;BME280;32291;52.010;4.446;2023-05-21T00:34:46;78752.16;;;-144.67;100.00
47522;BME280;32291;52.010;4.446;2023-05-21T00:35:48;78754.28;;;-144.67;100.00
47522;BME280;32291;52.010;4.446;2023-05-21T00:36:50;78747.88;;;-144.67;100.00
47522;BME280;32291;52.010;4.446;2023-05-21T00:37:54;78745.72;;;-144.67;100.00
47522;BME280;32291;52.010;4.446;2023-05-21T00:38:56;78754.28;;;-144.67;100.00
47522;BME280;32291;52.010;4.446;2023-05-21T00:39:57;78745.72;;;-144.67;100.00
47522;BME280;32291;52.010;4.446;2023-05-21T00:41:02;78747.88;;;-144.67;100.00
47522;BME280;32291;52.010;4.446;2023-05-21T00:42:05;78752.16;;;-144.67;100.00
47522;BME280;32291;52.010;4.446;2023-05-21T00:43:07;78745.72;;;-144.67;100.00
47522;BME280;32291;52.010;4.446;2023-05-21T00:44:11;78754.28;;;-144.67;100.00
47522;BME280;32291;52.010;4.446;2023-05-21T00:45:14;78750.00;;;-144.67;100.00
47522;BME280;32291;52.010;4.446;2023-05-21T00:46:19;78750.00;;;-144.67;100.00
47522;BME280;32291;52.010;4.446;2023-05-21T00:47:22;78758.56;;;-144.67;100.00
47522;BME280;32291;52.010;4.446;2023-05-21T00:48:25;78754.28;;;-144.67;100.00
47522;BME280;32291;52.010;4.446;2023-05-21T00:49:27;78762.84;;;-144.67;100.00
47522;BME280;32291;52.010;4.446;2023-05-21T00:50:30;78760.72;;;-144.67;100.00
47522;BME280;32291;52.010;4.446;2023-05-21T00:51:35;78762.84;;;-144.67;100.00
47522;BME280;32291;52.010;4.446;2023-05-21T00:52:37;78758.56;;;-144.67;100.00
47522;BME280;32291;52.010;4.446;2023-05-21T00:53:43;78762.84;;;-144.67;100.00
47522;BME280;32291;52.010;4.446;2023-05-21T00:54:49;78756.44;;;-144.67;100.00
47522;BME280;32291;52.010;4.446;2023-05-21T00:55:52;78758.56;;;-144.67;100.00
47522;BME280;32291;52.010;4.446;2023-05-21T00:56:55;78756.44;;;-144.67;100.00
47522;BME280;32291;52.010;4.446;2023-05-21T00:57:56;78758.56;;;-144.67;100.00
47522;BME280;32291;52.010;4.446;2023-05-21T00:58:58;78762.84;;;-144.67;100.00
47522;BME280;32291;52.010;4.446;2023-05-21T01:00:00;78758.56;;;-144.67;100.00
47522;BME280;32291;52.010;4.446;2023-05-21T01:01:01;78756.44;;;-144.67;100.00
47522;BME280;32291;52.010;4.446;2023-05-21T01:02:04;78754.28;;;-144.67;100.00
47522;BME280;32291;52.010;4.446;2023-05-21T01:03:07;78754.28;;;-144.67;100.00
47522;BME280;32291;52.010;4.446;2023-05-21T01:04:12;78745.72;;;-144.67;100.00
47522;BME280;32291;52.010;4.446;2023-05-21T01:05:14;78745.72;;;-144.67;100.00
47522;BME280;32291;52.010;4.446;2023-05-21T01:06:16;78737.16;;;-144.67;100.00
47522;BME280;32291;52.010;4.446;2023-05-21T01:07:18;78732.88;;;-144.67;100.00
47522;BME280;32291;52.010;4.446;2023-05-21T01:08:20;78726.47;;;-144.67;100.00
47522;BME280;32291;52.010;4.446;2023-05-21T01:09:23;78726.47;;;-144.67;100.00
47522;BME280;32291;52.010;4.446;2023-05-21T01:10:26;78728.59;;;-144.67;100.00
47522;BME280;32291;52.010;4.446;2023-05-21T01:11:39;78720.03;;;-144.67;100.00
47522;BME280;32291;52.010;4.446;2023-05-21T01:12:43;78715.75;;;-144.67;100.00
47522;BME280;32291;52.010;4.446;2023-05-21T01:13:46;78707.19;;;-144.67;100.00
47522;BME280;32291;52.010;4.446;2023-05-21T01:14:49;78698.63;;;-144.67;100.00
47522;BME280;32291;52.010;4.446;2023-05-21T01:15:53;78698.63;;;-144.67;100.00
47522;BME280;32291;52.010;4.446;2023-05-21T01:16:55;78698.63;;;-144.67;100.00
47522;BME280;32291;52.010;4.446;2023-05-21T01:17:57;78698.63;;;-144.67;100.00
47522;BME280;32291;52.010;4.446;2023-05-21T01:18:59;78690.06;;;-144.67;100.00
47522;BME280;32291;52.010;4.446;2023-05-21T01:20:05;78683.63;;;-144.67;100.00
47522;BME280;32291;52.010;4.446;2023-05-21T01:21:10;78681.50;;;-144.67;100.00
47522;BME280;32291;52.010;4.446;2023-05-21T01:22:12;78677.22;;;-144.67;100.00
47522;BME280;32291;52.010;4.446;2023-05-21T01:23:16;78668.66;;;-144.67;100.00
47522;BME280;32291;52.010;4.446;2023-05-21T01:24:18;78657.94;;;-144.67;100.00
47522;BME280;32291;52.010;4.446;2023-05-21T01:25:21;78655.81;;;-144.67;100.00
47522;BME280;32291;52.010;4.446;2023-05-21T01:26:26;78662.22;;;-144.67;100.00
47522;BME280;32291;52.010;4.446;2023-05-21T01:27:29;78657.94;;;-144.67;100.00
47522;BME280;32291;52.010;4.446;2023-05-21T01:28:31;78655.81;;;-144.67;100.00
47522;BME280;32291;52.010;4.446;2023-05-21T01:29:35;78645.09;;;-144.67;100.00
47522;BME280;32291;52.010;4.446;2023-05-21T01:30:39;78642.94;;;-144.67;100.00
47522;BME280;32291;52.010;4.446;2023-05-21T01:32:18;78642.94;;;-144.67;100.00
47522;BME280;32291;52.010;4.446;2023-05-21T01:33:46;78640.81;;;-144.67;100.00
47522;BME280;32291;52.010;4.446;2023-05-21T01:36:24;78638.66;;;-144.67;100.00
47522;BME280;32291;52.010;4.446;2023-05-21T01:38:48;78634.38;;;-144.67;100.00
47522;BME280;32291;52.010;4.446;2023-05-21T01:40:04;78638.66;;;-144.67;100.00
47522;BME280;32291;52.010;4.446;2023-05-21T01:41:11;78636.53;;;-144.67;100.00
47522;BME280;32291;52.010;4.446;2023-05-21T01:42:15;78638.66;;;-144.67;100.00
47522;BME280;32291;52.010;4.446;2023-05-21T01:43:19;78636.53;;;-144.67;100.00
47522;BME280;32291;52.010;4.446;2023-05-21T01:44:24;78632.25;;;-144.67;100.00
47522;BME280;32291;52.010;4.446;2023-05-21T01:45:30;78632.25;;;-144.67;100.00
47522;BME280;32291;52.010;4.446;2023-05-21T01:46:35;78636.53;;;-144.67;100.00
47522;BME280;32291;52.010;4.446;2023-05-21T01:47:39;78632.25;;;-144.67;100.00
47522;BME280;32291;52.010;4.446;2023-05-21T01:48:42;78630.09;;;-144.67;100.00
47522;BME280;32291;52.010;4.446;2023-05-21T01:49:44;78636.53;;;-144.67;100.00
47522;BME280;32291;52.010;4.446;2023-05-21T01:50:47;78640.81;;;-144.67;100.00
47522;BME280;32291;52.010;4.446;2023-05-21T01:51:50;78630.09;;;-144.67;100.00
47522;BME280;32291;52.010;4.446;2023-05-21T01:52:55;78634.38;;;-144.67;100.00
47522;BME280;32291;52.010;4.446;2023-05-21T01:54:04;78630.09;;;-144.67;100.00
47522;BME280;32291;52.010;4.446;2023-05-21T01:55:06;78621.53;;;-144.67;100.00
47522;BME280;32291;52.010;4.446;2023-05-21T01:56:07;78617.25;;;-144.67;100.00
47522;BME280;32291;52.010;4.446;2023-05-21T01:57:09;78617.25;;;-144.67;100.00
47522;BME280;32291;52.010;4.446;2023-05-21T01:58:11;78612.97;;;-144.67;100.00
47522;BME280;32291;52.010;4.446;2023-05-21T01:59:13;78621.53;;;-144.67;100.00
47522;BME280;32291;52.010;4.446;2023-05-21T02:00:15;78612.97;;;-144.67;100.00
47522;BME280;32291;52.010;4.446;2023-05-21T02:01:17;78612.97;;;-144.67;100.00
47522;BME280;32291;52.010;4.446;2023-05-21T02:02:19;78615.13;;;-144.67;100.00
47522;BME280;32291;52.010;4.446;2023-05-21T02:03:24;78610.84;;;-144.67;100.00
47522;BME280;32291;52.010;4.446;2023-05-21T02:04:27;78612.97;;;-144.67;100.00
47522;BME280;32291;52.010;4.446;2023-05-21T02:05:28;78612.97;;;-144.67;100.00
47522;BME280;32291;52.010;4.446;2023-05-21T02:06:30;78610.84;;;-144.67;100.00
47522;BME280;32291;52.010;4.446;2023-05-21T02:07:32;78608.69;;;-144.67;100.00
47522;BME280;32291;52.010;4.446;2023-05-21T02:08:34;78610.84;;;-144.67;100.00
47522;BME280;32291;52.010;4.446;2023-05-21T02:09:36;78598.00;;;-144.67;100.00
47522;BME280;32291;52.010;4.446;2023-05-21T02:10:38;78604.41;;;-144.67;100.00
47522;BME280;32291;52.010;4.446;2023-05-21T02:11:39;78600.13;;;-144.67;100.00
47522;BME280;32291;52.010;4.446;2023-05-21T02:12:41;78604.41;;;-144.67;100.00
47522;BME280;32291;52.010;4.446;2023-05-21T02:13:43;78600.13;;;-144.67;100.00
47522;BME280;32291;52.010;4.446;2023-05-21T02:14:46;78600.13;;;-144.67;100.00
47522;BME280;32291;52.010;4.446;2023-05-21T02:15:51;78600.13;;;-144.67;100.00
47522;BME280;32291;52.010;4.446;2023-05-21T02:16:54;78585.13;;;-144.67;100.00
47522;BME280;32291;52.010;4.446;2023-05-21T02:17:56;78593.69;;;-144.67;100.00
47522;BME280;32291;52.010;4.446;2023-05-21T02:18:58;78591.56;;;-144.67;100.00
47522;BME280;32291;52.010;4.446;2023-05-21T02:20:02;78600.13;;;-144.67;100.00
47522;BME280;32291;52.010;4.446;2023-05-21T02:21:12;78600.13;;;-144.67;100.00
47522;BME280;32291;52.010;4.446;2023-05-21T02:22:14;78595.84;;;-144.67;100.00
47522;BME280;32291;52.010;4.446;2023-05-21T02:23:15;78589.41;;;-144.67;100.00
47522;BME280;32291;52.010;4.446;2023-05-21T02:24:17;78587.28;;;-144.67;100.00
47522;BME280;32291;52.010;4.446;2023-05-21T02:25:19;78587.28;;;-144.67;100.00
47522;BME280;32291;52.010;4.446;2023-05-21T02:26:21;78595.84;;;-144.67;100.00
47522;BME280;32291;52.010;4.446;2023-05-21T02:27:23;78591.56;;;-144.67;100.00
47522;BME280;32291;52.010;4.446;2023-05-21T02:28:24;78591.56;;;-144.67;100.00
47522;BME280;32291;52.010;4.446;2023-05-21T02:29:26;78587.28;;;-144.67;100.00
47522;BME280;32291;52.010;4.446;2023-05-21T02:30:28;78583.00;;;-144.67;100.00
47522;BME280;32291;52.010;4.446;2023-05-21T02:31:29;78578.72;;;-144.67;100.00
47522;BME280;32291;52.010;4.446;2023-05-21T02:32:32;78583.00;;;-144.67;100.00
47522;BME280;32291;52.010;4.446;2023-05-21T02:33:34;78576.56;;;-144.67;100.00
47522;BME280;32291;52.010;4.446;2023-05-21T02:34:36;78574.44;;;-144.67;100.00
47522;BME280;32291;52.010;4.446;2023-05-21T02:35:42;78591.56;;;-144.67;100.00
47522;BME280;32291;52.010;4.446;2023-05-21T02:36:45;78591.56;;;-144.67;100.00
47522;BME280;32291;52.010;4.446;2023-05-21T02:37:48;78591.56;;;-144.67;100.00
47522;BME280;32291;52.010;4.446;2023-05-21T02:38:50;78587.28;;;-144.67;100.00
47522;BME280;32291;52.010;4.446;2023-05-21T02:39:55;78591.56;;;-144.67;100.00
47522;BME280;32291;52.010;4.446;2023-05-21T02:40:57;78576.56;;;-144.67;100.00
47522;BME280;32291;52.010;4.446;2023-05-21T02:41:59;78583.00;;;-144.67;100.00
47522;BME280;32291;52.010;4.446;2023-05-21T02:43:01;78583.00;;;-144.67;100.00
47522;BME280;32291;52.010;4.446;2023-05-21T02:44:02;78576.56;;;-144.67;100.00
47522;BME280;32291;52.010;4.446;2023-05-21T02:45:11;78576.56;;;-144.67;100.00
47522;BME280;32291;52.010;4.446;2023-05-21T02:46:13;78576.56;;;-144.67;100.00
47522;BME280;32291;52.010;4.446;2023-05-21T02:47:17;78578.72;;;-144.67;100.00
47522;BME280;32291;52.010;4.446;2023-05-21T02:48:18;78570.16;;;-144.67;100.00
47522;BME280;32291;52.010;4.446;2023-05-21T02:49:20;78572.28;;;-144.67;100.00
47522;BME280;32291;52.010;4.446;2023-05-21T02:50:22;78570.16;;;-144.67;100.00
47522;BME280;32291;52.010;4.446;2023-05-21T02:51:23;78570.16;;;-144.67;100.00
47522;BME280;32291;52.010;4.446;2023-05-21T02:52:25;78574.44;;;-144.67;100.00
47522;BME280;32291;52.010;4.446;2023-05-21T02:53:27;78570.16;;;-144.67;100.00
47522;BME280;32291;52.010;4.446;2023-05-21T02:54:30;78565.88;;;-144.67;100.00
47522;BME280;32291;52.010;4.446;2023-05-21T02:55:35;78570.16;;;-144.67;100.00
47522;BME280;32291;52.010;4.446;2023-05-21T02:56:36;78565.88;;;-144.67;100.00
47522;BME280;32291;52.010;4.446;2023-05-21T02:57:38;78570.16;;;-144.67;100.00
47522;BME280;32291;52.010;4.446;2023-05-21T02:58:39;78570.16;;;-144.67;100.00
47522;BME280;32291;52.010;4.446;2023-05-21T02:59:43;78570.16;;;-144.67;100.00
47522;BME280;32291;52.010;4.446;2023-05-21T03:00:45;78561.59;;;-144.67;100.00
47522;BME280;32291;52.010;4.446;2023-05-21T03:01:47;78561.59;;;-144.67;100.00
47522;BME280;32291;52.010;4.446;2023-05-21T03:02:48;78565.88;;;-144.67;100.00
47522;BME280;32291;52.010;4.446;2023-05-21T03:03:50;78561.59;;;-144.67;100.00
47522;BME280;32291;52.010;4.446;2023-05-21T03:04:52;78565.88;;;-144.67;100.00
47522;BME280;32291;52.010;4.446;2023-05-21T03:05:54;78561.59;;;-144.67;100.00
47522;BME280;32291;52.010;4.446;2023-05-21T03:06:56;78561.59;;;-144.67;100.00
47522;BME280;32291;52.010;4.446;2023-05-21T03:07:58;78561.59;;;-144.67;100.00
47522;BME280;32291;52.010;4.446;2023-05-21T03:09:00;78561.59;;;-144.67;100.00
47522;BME280;32291;52.010;4.446;2023-05-21T03:10:05;78557.31;;;-144.67;100.00
47522;BME280;32291;52.010;4.446;2023-05-21T03:11:07;78565.88;;;-144.67;100.00
47522;BME280;32291;52.010;4.446;2023-05-21T03:12:09;78550.88;;;-144.67;100.00
47522;BME280;32291;52.010;4.446;2023-05-21T03:13:11;78557.31;;;-144.67;100.00
47522;BME280;32291;52.010;4.446;2023-05-21T03:14:13;78550.88;;;-144.67;100.00
47522;BME280;32291;52.010;4.446;2023-05-21T03:15:15;78557.31;;;-144.67;100.00
47522;BME280;32291;52.010;4.446;2023-05-21T03:16:17;78553.03;;;-144.67;100.00
47522;BME280;32291;52.010;4.446;2023-05-21T03:17:18;78550.88;;;-144.67;100.00
47522;BME280;32291;52.010;4.446;2023-05-21T03:18:22;78542.31;;;-144.67;100.00
47522;BME280;32291;52.010;4.446;2023-05-21T03:19:23;78542.31;;;-144.67;100.00
47522;BME280;32291;52.010;4.446;2023-05-21T03:20:28;78546.59;;;-144.67;100.00
47522;BME280;32291;52.010;4.446;2023-05-21T03:21:32;78540.19;;;-144.67;100.00
47522;BME280;32291;52.010;4.446;2023-05-21T03:22:34;78535.91;;;-144.67;100.00
47522;BME280;32291;52.010;4.446;2023-05-21T03:23:38;78542.31;;;-144.67;100.00
47522;BME280;32291;52.010;4.446;2023-05-21T03:24:42;78540.19;;;-144.67;100.00
47522;BME280;32291;52.010;4.446;2023-05-21T03:25:46;78538.03;;;-144.67;100.00
47522;BME280;32291;52.010;4.446;2023-05-21T03:26:48;78540.19;;;-144.67;100.00
47522;BME280;32291;52.010;4.446;2023-05-21T03:27:53;78542.31;;;-144.67;100.00
47522;BME280;32291;52.010;4.446;2023-05-21T03:28:55;78542.31;;;-144.67;100.00
47522;BME280;32291;52.010;4.446;2023-05-21T03:29:57;78540.19;;;-144.67;100.00
47522;BME280;32291;52.010;4.446;2023-05-21T03:31:02;78535.91;;;-144.67;100.00
47522;BME280;32291;52.010;4.446;2023-05-21T03:32:06;78535.91;;;-144.67;100.00
47522;BME280;32291;52.010;4.446;2023-05-21T03:33:12;78535.91;;;-144.67;100.00
47522;BME280;32291;52.010;4.446;2023-05-21T03:34:15;78535.91;;;-144.67;100.00
47522;BME280;32291;52.010;4.446;2023-05-21T03:35:17;78531.63;;;-144.67;100.00
47522;BME280;32291;52.010;4.446;2023-05-21T03:36:19;78531.63;;;-144.67;100.00
47522;BME280;32291;52.010;4.446;2023-05-21T03:37:24;78529.47;;;-144.67;100.00
47522;BME280;32291;52.010;4.446;2023-05-21T03:38:25;78527.31;;;-144.67;100.00
47522;BME280;32291;52.010;4.446;2023-05-21T03:39:27;78523.03;;;-144.67;100.00
47522;BME280;32291;52.010;4.446;2023-05-21T03:40:29;78525.19;;;-144.67;100.00
47522;BME280;32291;52.010;4.446;2023-05-21T03:41:31;78527.31;;;-144.67;100.00
47522;BME280;32291;52.010;4.446;2023-05-21T03:42:35;78531.63;;;-144.67;100.00
47522;BME280;32291;52.010;4.446;2023-05-21T03:43:37;78527.31;;;-144.67;100.00
47522;BME280;32291;52.010;4.446;2023-05-21T03:44:39;78525.19;;;-144.67;100.00
47522;BME280;32291;52.010;4.446;2023-05-21T03:45:42;78523.03;;;-144.67;100.00
47522;BME280;32291;52.010;4.446;2023-05-21T03:46:43;78523.03;;;-144.67;100.00
47522;BME280;32291;52.010;4.446;2023-05-21T03:47:45;78514.47;;;-144.67;100.00
47522;BME280;32291;52.010;4.446;2023-05-21T03:48:49;78518.75;;;-144.67;100.00
47522;BME280;32291;52.010;4.446;2023-05-21T03:49:50;78518.75;;;-144.67;100.00
47522;BME280;32291;52.010;4.446;2023-05-21T03:50:55;78520.91;;;-144.67;100.00
47522;BME280;32291;52.010;4.446;2023-05-21T03:51:57;78520.91;;;-144.67;100.00
47522;BME280;32291;52.010;4.446;2023-05-21T03:52:59;78520.91;;;-144.67;100.00
47522;BME280;32291;52.010;4.446;2023-05-21T03:54:01;78516.63;;;-144.67;100.00
47522;BME280;32291;52.010;4.446;2023-05-21T03:55:05;78520.91;;;-144.67;100.00
47522;BME280;32291;52.010;4.446;2023-05-21T03:56:07;78518.75;;;-144.67;100.00
47522;BME280;32291;52.010;4.446;2023-05-21T03:57:09;78520.91;;;-144.67;100.00
47522;BME280;32291;52.010;4.446;2023-05-21T03:58:10;78510.19;;;-144.67;100.00
47522;BME280;32291;52.010;4.446;2023-05-21T03:59:15;78523.03;;;-144.67;100.00
47522;BME280;32291;52.010;4.446;2023-05-21T04:00:17;78520.91;;;-144.67;100.00
47522;BME280;32291;52.010;4.446;2023-05-21T04:01:19;78518.75;;;-144.67;100.00
47522;BME280;32291;52.010;4.446;2023-05-21T04:02:26;78516.63;;;-144.67;100.00
47522;BME280;32291;52.010;4.446;2023-05-21T04:03:28;78512.34;;;-144.67;100.00
47522;BME280;32291;52.010;4.446;2023-05-21T04:04:29;78510.19;;;-144.67;100.00
47522;BME280;32291;52.010;4.446;2023-05-21T04:05:32;78514.47;;;-144.67;100.00
47522;BME280;32291;52.010;4.446;2023-05-21T04:06:34;78510.19;;;-144.67;100.00
47522;BME280;32291;52.010;4.446;2023-05-21T04:07:35;78514.47;;;-144.67;100.00
47522;BME280;32291;52.010;4.446;2023-05-21T04:08:38;78510.19;;;-144.67;100.00
47522;BME280;32291;52.010;4.446;2023-05-21T04:09:40;78510.19;;;-144.67;100.00
47522;BME280;32291;52.010;4.446;2023-05-21T04:10:42;78514.47;;;-144.67;100.00
47522;BME280;32291;52.010;4.446;2023-05-21T04:11:44;78508.06;;;-144.67;100.00
47522;BME280;32291;52.010;4.446;2023-05-21T04:12:48;78501.63;;;-144.67;100.00
47522;BME280;32291;52.010;4.446;2023-05-21T04:13:53;78497.34;;;-144.67;100.00
47522;BME280;32291;52.010;4.446;2023-05-21T04:14:54;78497.34;;;-144.67;100.00
47522;BME280;32291;52.010;4.446;2023-05-21T04:15:56;78505.91;;;-144.67;100.00
47522;BME280;32291;52.010;4.446;2023-05-21T04:16:58;78505.91;;;-144.67;100.00
47522;BME280;32291;52.010;4.446;2023-05-21T04:18:00;78501.63;;;-144.67;100.00
47522;BME280;32291;52.010;4.446;2023-05-21T04:19:03;78497.34;;;-144.67;100.00
47522;BME280;32291;52.010;4.446;2023-05-21T04:20:06;78495.22;;;-144.67;100.00
47522;BME280;32291;52.010;4.446;2023-05-21T04:21:08;78493.06;;;-144.67;100.00
47522;BME280;32291;52.010;4.446;2023-05-21T04:22:10;78497.34;;;-144.67;100.00
47522;BME280;32291;52.010;4.446;2023-05-21T04:23:15;78497.34;;;-144.67;100.00
47522;BME280;32291;52.010;4.446;2023-05-21T04:24:17;78497.34;;;-144.67;100.00
47522;BME280;32291;52.010;4.446;2023-05-21T04:25:19;78499.50;;;-144.67;100.00
47522;BME280;32291;52.010;4.446;2023-05-21T04:26:23;78493.06;;;-144.67;100.00
47522;BME280;32291;52.010;4.446;2023-05-21T04:27:25;78497.34;;;-144.67;100.00
47522;BME280;32291;52.010;4.446;2023-05-21T04:28:27;78486.66;;;-144.67;100.00
47522;BME280;32291;52.010;4.446;2023-05-21T04:29:29;78488.78;;;-144.67;100.00
47522;BME280;32291;52.010;4.446;2023-05-21T04:30:31;78484.50;;;-144.67;100.00
47522;BME280;32291;52.010;4.446;2023-05-21T04:31:35;78486.66;;;-144.67;100.00
47522;BME280;32291;52.010;4.446;2023-05-21T04:32:37;78484.50;;;-144.67;100.00
47522;BME280;32291;52.010;4.446;2023-05-21T04:33:39;78490.94;;;-144.67;100.00
47522;BME280;32291;52.010;4.446;2023-05-21T04:34:45;78488.78;;;-144.67;100.00
47522;BME280;32291;52.010;4.446;2023-05-21T04:35:50;78486.66;;;-144.67;100.00
47522;BME280;32291;52.010;4.446;2023-05-21T04:36:54;78484.50;;;-144.67;100.00
47522;BME280;32291;52.010;4.446;2023-05-21T04:37:57;78478.09;;;-144.67;100.00
47522;BME280;32291;52.010;4.446;2023-05-21T04:38:58;78471.66;;;-144.67;100.00
47522;BME280;32291;52.010;4.446;2023-05-21T04:40:00;78475.94;;;-144.67;100.00
47522;BME280;32291;52.010;4.446;2023-05-21T04:41:05;78471.66;;;-144.67;100.00
47522;BME280;32291;52.010;4.446;2023-05-21T04:42:07;78471.66;;;-144.67;100.00
47522;BME280;32291;52.010;4.446;2023-05-21T04:43:11;78465.25;;;-144.67;100.00
47522;BME280;32291;52.010;4.446;2023-05-21T04:44:12;78463.09;;;-144.67;100.00
47522;BME280;32291;52.010;4.446;2023-05-21T04:45:15;78471.66;;;-144.67;100.00
47522;BME280;32291;52.010;4.446;2023-05-21T04:46:18;78463.09;;;-144.67;100.00
47522;BME280;32291;52.010;4.446;2023-05-21T04:47:20;78460.94;;;-144.67;100.00
47522;BME280;32291;52.010;4.446;2023-05-21T04:48:25;78467.38;;;-144.67;100.00
47522;BME280;32291;52.010;4.446;2023-05-21T04:49:30;78458.81;;;-144.67;100.00
47522;BME280;32291;52.010;4.446;2023-05-21T04:50:32;78458.81;;;-144.67;100.00
47522;BME280;32291;52.010;4.446;2023-05-21T04:51:34;78460.94;;;-144.67;100.00
47522;BME280;32291;52.010;4.446;2023-05-21T04:52:39;78454.53;;;-144.67;100.00
47522;BME280;32291;52.010;4.446;2023-05-21T04:53:40;78454.53;;;-144.67;100.00
47522;BME280;32291;52.010;4.446;2023-05-21T04:54:45;78445.97;;;-144.67;100.00
47522;BME280;32291;52.010;4.446;2023-05-21T04:55:48;78445.97;;;-144.67;100.00
47522;BME280;32291;52.010;4.446;2023-05-21T04:56:49;78439.53;;;-144.67;100.00
47522;BME280;32291;52.010;4.446;2023-05-21T04:57:54;78441.69;;;-144.67;100.00
47522;BME280;32291;52.010;4.446;2023-05-21T04:58:55;78441.69;;;-144.67;100.00
47522;BME280;32291;52.010;4.446;2023-05-21T04:59:58;78433.13;;;-144.67;100.00
47522;BME280;32291;52.010;4.446;2023-05-21T05:01:01;78433.13;;;-144.67;100.00
47522;BME280;32291;52.010;4.446;2023-05-21T05:02:06;78422.41;;;-144.67;100.00
47522;BME280;32291;52.010;4.446;2023-05-21T05:03:07;78416.00;;;-144.67;100.00
47522;BME280;32291;52.010;4.446;2023-05-21T05:04:09;78416.00;;;-144.67;100.00
47522;BME280;32291;52.010;4.446;2023-05-21T05:05:11;78407.44;;;-144.67;100.00
47522;BME280;32291;52.010;4.446;2023-05-21T05:06:13;78398.88;;;-144.67;100.00
47522;BME280;32291;52.010;4.446;2023-05-21T05:07:15;78390.31;;;-144.67;100.00
47522;BME280;32291;52.010;4.446;2023-05-21T05:08:17;78394.59;;;-144.67;100.00
47522;BME280;32291;52.010;4.446;2023-05-21T05:09:18;78396.72;;;-144.67;100.00
47522;BME280;32291;52.010;4.446;2023-05-21T05:10:22;78377.44;;;-144.67;100.00
47522;BME280;32291;52.010;4.446;2023-05-21T05:11:24;78371.03;;;-144.67;100.00
47522;BME280;32291;52.010;4.446;2023-05-21T05:12:25;78364.59;;;-144.67;100.00
47522;BME280;32291;52.010;4.446;2023-05-21T05:13:27;78364.59;;;-144.67;100.00
47522;BME280;32291;52.010;4.446;2023-05-21T05:14:29;78364.59;;;-144.67;100.00
47522;BME280;32291;52.010;4.446;2023-05-21T05:15:32;78360.31;;;-144.67;100.00
47522;BME280;32291;52.010;4.446;2023-05-21T05:16:33;78351.75;;;-144.67;100.00
47522;BME280;32291;52.010;4.446;2023-05-21T05:17:35;78347.47;;;-144.67;100.00
47522;BME280;32291;52.010;4.446;2023-05-21T05:18:37;78336.78;;;-144.67;100.00
47522;BME280;32291;52.010;4.446;2023-05-21T05:19:39;78345.34;;;-144.67;100.00
47522;BME280;32291;52.010;4.446;2023-05-21T05:20:41;78338.91;;;-144.67;100.00
47522;BME280;32291;52.010;4.446;2023-05-21T05:21:42;78338.91;;;-144.67;100.00
47522;BME280;32291;52.010;4.446;2023-05-21T05:22:44;78334.63;;;-144.67;100.00
47522;BME280;32291;52.010;4.446;2023-05-21T05:23:46;78330.34;;;-144.67;100.00